首页
METAR-TAF:

METAR-TAF

机场 :

空军基地 Cameri

諾瓦拉, 意大利

纬度: 45-31N, 经度: 008-40E, 海拔: 178米

当前天气观测

该预报发布于41分钟前的16:55 UTC
风速13节,风向北转东北
温度 27°C
湿度 26%
气压 1007 hPa
能见度10公里或以上
1500米以下无云,无积雨云

METAR: LIMN 041655Z 02013KT CAVOK 27/06 Q1007 RMK FEW FEW080 VIS MIN 9999 BLU

时间: 19:36 (17:36 UTC)

预报

该预报发布于3小时和36分钟前的14:00 UTC
预报有效从04日的 15点(UTC)到 04日的 24点(UTC)
风速8节,风向北转西北
能见度10公里或以上
少量云层高于6000英尺
短暂存在
从 04日的 15点(UTC)到 04日的 21点(UTC)
风速15节,风向北转东北,有时为25节阵风

TAF: LIMN 041400Z 0415/0424 34008KT 9999 FEW060 TEMPO 0415/0421 03015G25KT

超过4000个机场的气象观测和天气预报(METAR&TAF报告)。

可查询的气象台以黄色和红色小点在地图上表示。

将鼠标移到小点上方,可查看气象台名称。

然后点击查看天气观测和预报。

如需切换地图:点击带黑十字的绿色按钮放大地图;点击带横线的绿色按钮缩小地图;或者点击绿色箭头查看邻近地区的地图。


METAR-TAF: